sensor_id;sensor_type;location;lat;lon;timestamp;P1;durP1;ratioP1;P2;durP2;ratioP2
58017;SDS011;43810;50.860;19.226;2022-07-29T00:01:47;6.80;;;4.05;;
58017;SDS011;43810;50.860;19.226;2022-07-29T00:04:13;9.82;;;3.33;;
58017;SDS011;43810;50.860;19.226;2022-07-29T00:06:39;6.70;;;3.88;;
58017;SDS011;43810;50.860;19.226;2022-07-29T00:09:04;7.80;;;3.15;;
58017;SDS011;43810;50.860;19.226;2022-07-29T00:11:30;3.90;;;3.50;;
58017;SDS011;43810;50.860;19.226;2022-07-29T00:13:55;5.97;;;3.40;;
58017;SDS011;43810;50.860;19.226;2022-07-29T00:16:21;7.03;;;3.53;;
58017;SDS011;43810;50.860;19.226;2022-07-29T00:18:47;5.05;;;3.75;;
58017;SDS011;43810;50.860;19.226;2022-07-29T00:21:13;5.72;;;3.53;;
58017;SDS011;43810;50.860;19.226;2022-07-29T00:23:38;5.88;;;3.60;;
58017;SDS011;43810;50.860;19.226;2022-07-29T00:26:04;6.93;;;3.75;;
58017;SDS011;43810;50.860;19.226;2022-07-29T00:28:29;5.35;;;3.25;;
58017;SDS011;43810;50.860;19.226;2022-07-29T00:30:55;4.38;;;3.05;;
58017;SDS011;43810;50.860;19.226;2022-07-29T00:33:20;7.45;;;3.67;;
58017;SDS011;43810;50.860;19.226;2022-07-29T00:35:47;7.30;;;3.17;;
58017;SDS011;43810;50.860;19.226;2022-07-29T00:38:14;5.88;;;3.67;;
58017;SDS011;43810;50.860;19.226;2022-07-29T00:40:40;7.55;;;3.97;;
58017;SDS011;43810;50.860;19.226;2022-07-29T00:43:05;6.68;;;3.47;;
58017;SDS011;43810;50.860;19.226;2022-07-29T00:45:31;4.88;;;3.40;;
58017;SDS011;43810;50.860;19.226;2022-07-29T00:47:57;5.63;;;3.35;;
58017;SDS011;43810;50.860;19.226;2022-07-29T00:50:23;9.85;;;3.78;;
58017;SDS011;43810;50.860;19.226;2022-07-29T00:52:49;5.57;;;3.20;;
58017;SDS011;43810;50.860;19.226;2022-07-29T00:55:15;9.32;;;3.65;;
58017;SDS011;43810;50.860;19.226;2022-07-29T00:57:42;8.75;;;3.63;;
58017;SDS011;43810;50.860;19.226;2022-07-29T01:00:09;8.10;;;3.08;;
58017;SDS011;43810;50.860;19.226;2022-07-29T01:02:36;8.85;;;3.65;;
58017;SDS011;43810;50.860;19.226;2022-07-29T01:05:02;5.63;;;3.50;;
58017;SDS011;43810;50.860;19.226;2022-07-29T01:07:29;6.75;;;3.45;;
58017;SDS011;43810;50.860;19.226;2022-07-29T01:09:55;7.53;;;3.78;;
58017;SDS011;43810;50.860;19.226;2022-07-29T01:12:24;7.03;;;3.30;;
58017;SDS011;43810;50.860;19.226;2022-07-29T01:14:49;6.13;;;3.20;;
58017;SDS011;43810;50.860;19.226;2022-07-29T01:17:31;8.18;;;3.60;;
58017;SDS011;43810;50.860;19.226;2022-07-29T01:19:58;6.13;;;3.13;;
58017;SDS011;43810;50.860;19.226;2022-07-29T01:25:19;6.38;;;3.17;;
58017;SDS011;43810;50.860;19.226;2022-07-29T01:27:54;7.97;;;3.25;;
58017;SDS011;43810;50.860;19.226;2022-07-29T01:30:24;5.88;;;3.28;;
58017;SDS011;43810;50.860;19.226;2022-07-29T01:32:53;7.72;;;3.25;;
58017;SDS011;43810;50.860;19.226;2022-07-29T01:35:23;6.65;;;3.03;;
58017;SDS011;43810;50.860;19.226;2022-07-29T01:37:52;7.10;;;3.55;;
58017;SDS011;43810;50.860;19.226;2022-07-29T01:42:48;5.75;;;3.50;;
58017;SDS011;43810;50.860;19.226;2022-07-29T01:45:15;3.88;;;3.13;;
58017;SDS011;43810;50.860;19.226;2022-07-29T01:50:17;6.63;;;3.10;;
58017;SDS011;43810;50.860;19.226;2022-07-29T01:52:46;6.00;;;3.33;;
58017;SDS011;43810;50.860;19.226;2022-07-29T01:55:15;7.28;;;3.45;;
58017;SDS011;43810;50.860;19.226;2022-07-29T01:57:46;11.38;;;3.83;;
58017;SDS011;43810;50.860;19.226;2022-07-29T02:00:13;5.68;;;3.55;;
58017;SDS011;43810;50.860;19.226;2022-07-29T02:02:39;7.72;;;3.25;;
58017;SDS011;43810;50.860;19.226;2022-07-29T02:05:05;6.40;;;3.35;;
58017;SDS011;43810;50.860;19.226;2022-07-29T02:07:32;5.28;;;3.22;;
58017;SDS011;43810;50.860;19.226;2022-07-29T02:09:58;6.40;;;3.70;;
58017;SDS011;43810;50.860;19.226;2022-07-29T02:12:24;4.30;;;3.10;;
58017;SDS011;43810;50.860;19.226;2022-07-29T02:14:52;6.65;;;3.47;;
58017;SDS011;43810;50.860;19.226;2022-07-29T02:17:23;7.07;;;3.58;;
58017;SDS011;43810;50.860;19.226;2022-07-29T02:19:49;7.38;;;3.60;;
58017;SDS011;43810;50.860;19.226;2022-07-29T02:22:15;4.15;;;3.25;;
58017;SDS011;43810;50.860;19.226;2022-07-29T02:24:41;6.07;;;3.65;;
58017;SDS011;43810;50.860;19.226;2022-07-29T02:27:08;6.82;;;3.20;;
58017;SDS011;43810;50.860;19.226;2022-07-29T02:29:33;5.30;;;3.72;;
58017;SDS011;43810;50.860;19.226;2022-07-29T02:31:59;7.97;;;3.90;;
58017;SDS011;43810;50.860;19.226;2022-07-29T02:34:26;7.18;;;3.60;;
58017;SDS011;43810;50.860;19.226;2022-07-29T02:36:52;5.20;;;3.42;;
58017;SDS011;43810;50.860;19.226;2022-07-29T02:39:19;5.07;;;3.50;;
58017;SDS011;43810;50.860;19.226;2022-07-29T02:41:49;8.00;;;3.72;;
58017;SDS011;43810;50.860;19.226;2022-07-29T02:44:17;5.43;;;3.50;;
58017;SDS011;43810;50.860;19.226;2022-07-29T02:46:45;8.52;;;4.03;;
58017;SDS011;43810;50.860;19.226;2022-07-29T02:49:55;10.65;;;3.80;;
58017;SDS011;43810;50.860;19.226;2022-07-29T02:52:01;4.82;;;3.45;;
58017;SDS011;43810;50.860;19.226;2022-07-29T02:54:42;5.43;;;3.22;;
58017;SDS011;43810;50.860;19.226;2022-07-29T02:57:20;6.07;;;3.72;;
58017;SDS011;43810;50.860;19.226;2022-07-29T02:59:48;4.82;;;3.35;;
58017;SDS011;43810;50.860;19.226;2022-07-29T03:02:15;5.70;;;3.65;;
58017;SDS011;43810;50.860;19.226;2022-07-29T03:04:41;7.70;;;4.68;;
58017;SDS011;43810;50.860;19.226;2022-07-29T03:07:07;5.75;;;3.35;;
58017;SDS011;43810;50.860;19.226;2022-07-29T03:09:34;7.57;;;3.58;;
58017;SDS011;43810;50.860;19.226;2022-07-29T03:11:59;6.43;;;4.15;;
58017;SDS011;43810;50.860;19.226;2022-07-29T03:14:25;7.32;;;3.67;;
58017;SDS011;43810;50.860;19.226;2022-07-29T03:16:52;8.15;;;3.75;;
58017;SDS011;43810;50.860;19.226;2022-07-29T03:19:18;9.77;;;4.13;;
58017;SDS011;43810;50.860;19.226;2022-07-29T03:21:44;7.03;;;4.25;;
58017;SDS011;43810;50.860;19.226;2022-07-29T03:24:10;6.50;;;4.00;;
58017;SDS011;43810;50.860;19.226;2022-07-29T03:26:35;6.10;;;3.42;;
58017;SDS011;43810;50.860;19.226;2022-07-29T03:29:01;4.25;;;3.15;;
58017;SDS011;43810;50.860;19.226;2022-07-29T03:31:26;5.80;;;3.90;;
58017;SDS011;43810;50.860;19.226;2022-07-29T03:33:52;9.35;;;4.20;;
58017;SDS011;43810;50.860;19.226;2022-07-29T03:36:17;6.68;;;3.80;;
58017;SDS011;43810;50.860;19.226;2022-07-29T03:38:43;7.32;;;3.95;;
58017;SDS011;43810;50.860;19.226;2022-07-29T03:41:10;8.18;;;3.58;;
58017;SDS011;43810;50.860;19.226;2022-07-29T03:43:37;8.13;;;4.07;;
58017;SDS011;43810;50.860;19.226;2022-07-29T03:46:04;12.30;;;4.20;;
58017;SDS011;43810;50.860;19.226;2022-07-29T03:48:32;5.22;;;3.45;;
58017;SDS011;43810;50.860;19.226;2022-07-29T03:50:59;12.50;;;4.00;;
58017;SDS011;43810;50.860;19.226;2022-07-29T03:53:25;6.15;;;3.40;;
58017;SDS011;43810;50.860;19.226;2022-07-29T03:55:52;6.97;;;3.72;;
58017;SDS011;43810;50.860;19.226;2022-07-29T03:58:18;5.45;;;3.75;;
58017;SDS011;43810;50.860;19.226;2022-07-29T04:00:44;8.90;;;3.22;;
58017;SDS011;43810;50.860;19.226;2022-07-29T04:03:10;5.75;;;3.63;;
58017;SDS011;43810;50.860;19.226;2022-07-29T04:05:36;7.22;;;3.55;;
58017;SDS011;43810;50.860;19.226;2022-07-29T04:08:02;8.25;;;3.58;;
58017;SDS011;43810;50.860;19.226;2022-07-29T04:10:28;7.97;;;3.70;;
58017;SDS011;43810;50.860;19.226;2022-07-29T04:12:53;9.40;;;3.50;;
58017;SDS011;43810;50.860;19.226;2022-07-29T04:15:19;5.05;;;3.17;;
58017;SDS011;43810;50.860;19.226;2022-07-29T04:17:44;5.38;;;3.85;;
58017;SDS011;43810;50.860;19.226;2022-07-29T04:20:10;7.90;;;3.08;;
58017;SDS011;43810;50.860;19.226;2022-07-29T04:22:39;7.63;;;3.50;;
58017;SDS011;43810;50.860;19.226;2022-07-29T04:25:04;8.27;;;3.10;;
58017;SDS011;43810;50.860;19.226;2022-07-29T04:27:30;5.82;;;3.17;;
58017;SDS011;43810;50.860;19.226;2022-07-29T04:29:55;5.18;;;3.00;;
58017;SDS011;43810;50.860;19.226;2022-07-29T04:32:21;6.95;;;2.58;;
58017;SDS011;43810;50.860;19.226;2022-07-29T04:34:46;4.35;;;2.72;;
58017;SDS011;43810;50.860;19.226;2022-07-29T04:37:12;3.70;;;2.90;;
58017;SDS011;43810;50.860;19.226;2022-07-29T04:39:38;10.45;;;2.65;;
58017;SDS011;43810;50.860;19.226;2022-07-29T04:42:03;8.60;;;3.17;;
58017;SDS011;43810;50.860;19.226;2022-07-29T04:44:29;7.70;;;3.60;;
58017;SDS011;43810;50.860;19.226;2022-07-29T04:46:55;5.22;;;2.85;;
58017;SDS011;43810;50.860;19.226;2022-07-29T04:49:20;5.47;;;2.70;;
58017;SDS011;43810;50.860;19.226;2022-07-29T04:51:46;4.22;;;2.20;;
58017;SDS011;43810;50.860;19.226;2022-07-29T04:54:11;2.80;;;2.10;;
58017;SDS011;43810;50.860;19.226;2022-07-29T04:56:37;4.53;;;2.60;;
58017;SDS011;43810;50.860;19.226;2022-07-29T04:59:03;3.72;;;2.90;;
58017;SDS011;43810;50.860;19.226;2022-07-29T05:01:28;4.70;;;2.92;;
58017;SDS011;43810;50.860;19.226;2022-07-29T05:03:54;4.72;;;2.45;;
58017;SDS011;43810;50.860;19.226;2022-07-29T05:06:20;5.85;;;3.13;;
58017;SDS011;43810;50.860;19.226;2022-07-29T05:08:45;6.07;;;3.17;;
58017;SDS011;43810;50.860;19.226;2022-07-29T05:11:11;5.20;;;2.60;;
58017;SDS011;43810;50.860;19.226;2022-07-29T05:13:37;6.55;;;3.10;;
58017;SDS011;43810;50.860;19.226;2022-07-29T05:16:02;5.90;;;2.78;;
58017;SDS011;43810;50.860;19.226;2022-07-29T05:18:28;6.30;;;3.35;;
58017;SDS011;43810;50.860;19.226;2022-07-29T05:20:54;4.35;;;2.47;;
58017;SDS011;43810;50.860;19.226;2022-07-29T05:23:19;7.35;;;3.08;;
58017;SDS011;43810;50.860;19.226;2022-07-29T05:25:45;7.40;;;3.50;;
58017;SDS011;43810;50.860;19.226;2022-07-29T05:28:12;5.45;;;2.72;;
58017;SDS011;43810;50.860;19.226;2022-07-29T05:30:37;5.10;;;2.88;;
58017;SDS011;43810;50.860;19.226;2022-07-29T05:33:03;5.82;;;2.83;;
58017;SDS011;43810;50.860;19.226;2022-07-29T05:35:29;5.45;;;3.00;;
58017;SDS011;43810;50.860;19.226;2022-07-29T05:37:54;7.93;;;3.15;;
58017;SDS011;43810;50.860;19.226;2022-07-29T05:40:20;5.25;;;2.50;;
58017;SDS011;43810;50.860;19.226;2022-07-29T05:42:46;4.30;;;2.15;;
58017;SDS011;43810;50.860;19.226;2022-07-29T05:45:11;2.85;;;2.25;;
58017;SDS011;43810;50.860;19.226;2022-07-29T05:47:37;4.78;;;2.25;;
58017;SDS011;43810;50.860;19.226;2022-07-29T05:50:02;3.17;;;1.90;;
58017;SDS011;43810;50.860;19.226;2022-07-29T05:52:29;4.07;;;2.15;;
58017;SDS011;43810;50.860;19.226;2022-07-29T05:54:54;5.18;;;2.20;;
58017;SDS011;43810;50.860;19.226;2022-07-29T05:57:21;2.95;;;2.03;;
58017;SDS011;43810;50.860;19.226;2022-07-29T05:59:47;5.35;;;2.22;;
58017;SDS011;43810;50.860;19.226;2022-07-29T06:02:13;7.28;;;2.17;;
58017;SDS011;43810;50.860;19.226;2022-07-29T06:04:39;3.75;;;1.90;;
58017;SDS011;43810;50.860;19.226;2022-07-29T06:07:04;3.65;;;1.92;;
58017;SDS011;43810;50.860;19.226;2022-07-29T06:09:30;4.43;;;1.77;;
58017;SDS011;43810;50.860;19.226;2022-07-29T06:11:56;5.65;;;2.40;;
58017;SDS011;43810;50.860;19.226;2022-07-29T06:14:23;4.25;;;2.10;;
58017;SDS011;43810;50.860;19.226;2022-07-29T06:16:48;5.43;;;2.25;;
58017;SDS011;43810;50.860;19.226;2022-07-29T06:19:14;6.38;;;1.88;;
58017;SDS011;43810;50.860;19.226;2022-07-29T06:21:43;6.88;;;1.67;;
58017;SDS011;43810;50.860;19.226;2022-07-29T06:24:10;4.97;;;1.75;;
58017;SDS011;43810;50.860;19.226;2022-07-29T06:26:36;3.25;;;1.75;;
58017;SDS011;43810;50.860;19.226;2022-07-29T06:29:01;4.45;;;1.63;;
58017;SDS011;43810;50.860;19.226;2022-07-29T06:31:27;3.90;;;1.75;;
58017;SDS011;43810;50.860;19.226;2022-07-29T06:33:53;3.45;;;1.60;;
58017;SDS011;43810;50.860;19.226;2022-07-29T06:36:18;3.55;;;1.63;;
58017;SDS011;43810;50.860;19.226;2022-07-29T06:38:44;6.10;;;1.90;;
58017;SDS011;43810;50.860;19.226;2022-07-29T06:41:09;4.65;;;1.60;;
58017;SDS011;43810;50.860;19.226;2022-07-29T06:43:38;3.90;;;1.70;;
58017;SDS011;43810;50.860;19.226;2022-07-29T06:46:05;13.45;;;2.40;;
58017;SDS011;43810;50.860;19.226;2022-07-29T06:48:31;8.02;;;1.60;;
58017;SDS011;43810;50.860;19.226;2022-07-29T06:50:57;2.15;;;1.30;;
58017;SDS011;43810;50.860;19.226;2022-07-29T06:53:23;2.17;;;1.55;;
58017;SDS011;43810;50.860;19.226;2022-07-29T06:55:48;1.55;;;1.33;;
58017;SDS011;43810;50.860;19.226;2022-07-29T06:58:14;3.30;;;1.27;;
58017;SDS011;43810;50.860;19.226;2022-07-29T07:00:43;4.00;;;1.58;;
58017;SDS011;43810;50.860;19.226;2022-07-29T07:03:09;3.00;;;1.55;;
58017;SDS011;43810;50.860;19.226;2022-07-29T07:05:35;2.70;;;1.40;;
58017;SDS011;43810;50.860;19.226;2022-07-29T07:08:00;4.15;;;1.60;;
58017;SDS011;43810;50.860;19.226;2022-07-29T07:10:26;3.35;;;1.23;;
58017;SDS011;43810;50.860;19.226;2022-07-29T07:12:52;3.42;;;1.50;;
58017;SDS011;43810;50.860;19.226;2022-07-29T07:15:17;4.40;;;1.63;;
58017;SDS011;43810;50.860;19.226;2022-07-29T07:17:48;5.10;;;1.20;;
58017;SDS011;43810;50.860;19.226;2022-07-29T07:20:14;5.45;;;1.50;;
58017;SDS011;43810;50.860;19.226;2022-07-29T07:22:39;5.68;;;1.25;;
58017;SDS011;43810;50.860;19.226;2022-07-29T07:25:05;3.42;;;1.45;;
58017;SDS011;43810;50.860;19.226;2022-07-29T07:27:31;1.50;;;1.10;;
58017;SDS011;43810;50.860;19.226;2022-07-29T07:29:57;1.70;;;1.35;;
58017;SDS011;43810;50.860;19.226;2022-07-29T07:32:23;3.85;;;1.23;;
58017;SDS011;43810;50.860;19.226;2022-07-29T07:34:48;8.10;;;1.67;;
58017;SDS011;43810;50.860;19.226;2022-07-29T07:37:14;2.28;;;1.20;;
58017;SDS011;43810;50.860;19.226;2022-07-29T07:39:40;2.85;;;1.30;;
58017;SDS011;43810;50.860;19.226;2022-07-29T07:42:05;3.03;;;1.30;;
58017;SDS011;43810;50.860;19.226;2022-07-29T07:44:31;3.03;;;1.23;;
58017;SDS011;43810;50.860;19.226;2022-07-29T07:46:57;3.53;;;1.33;;
58017;SDS011;43810;50.860;19.226;2022-07-29T07:49:22;3.05;;;1.15;;
58017;SDS011;43810;50.860;19.226;2022-07-29T07:51:48;4.00;;;1.30;;
58017;SDS011;43810;50.860;19.226;2022-07-29T07:54:14;3.30;;;1.20;;
58017;SDS011;43810;50.860;19.226;2022-07-29T07:56:39;3.78;;;1.98;;
58017;SDS011;43810;50.860;19.226;2022-07-29T07:59:05;2.63;;;1.30;;
58017;SDS011;43810;50.860;19.226;2022-07-29T08:01:30;1.10;;;1.00;;
58017;SDS011;43810;50.860;19.226;2022-07-29T08:03:56;2.28;;;1.02;;
58017;SDS011;43810;50.860;19.226;2022-07-29T08:06:21;3.15;;;1.10;;
58017;SDS011;43810;50.860;19.226;2022-07-29T08:08:49;1.80;;;1.00;;
58017;SDS011;43810;50.860;19.226;2022-07-29T08:11:14;3.38;;;1.27;;
58017;SDS011;43810;50.860;19.226;2022-07-29T08:13:40;4.50;;;0.95;;
58017;SDS011;43810;50.860;19.226;2022-07-29T08:16:06;4.82;;;1.42;;
58017;SDS011;43810;50.860;19.226;2022-07-29T08:18:38;3.10;;;1.02;;
58017;SDS011;43810;50.860;19.226;2022-07-29T08:21:04;3.60;;;1.05;;
58017;SDS011;43810;50.860;19.226;2022-07-29T08:23:30;2.35;;;1.25;;
58017;SDS011;43810;50.860;19.226;2022-07-29T08:26:04;3.35;;;1.20;;
58017;SDS011;43810;50.860;19.226;2022-07-29T08:28:29;4.07;;;1.20;;
58017;SDS011;43810;50.860;19.226;2022-07-29T08:30:55;1.63;;;1.00;;
58017;SDS011;43810;50.860;19.226;2022-07-29T08:33:20;2.10;;;1.30;;
58017;SDS011;43810;50.860;19.226;2022-07-29T08:35:46;3.97;;;1.25;;
58017;SDS011;43810;50.860;19.226;2022-07-29T08:38:13;2.17;;;1.15;;
58017;SDS011;43810;50.860;19.226;2022-07-29T08:40:39;3.22;;;1.20;;
58017;SDS011;43810;50.860;19.226;2022-07-29T08:43:05;2.38;;;1.20;;
58017;SDS011;43810;50.860;19.226;2022-07-29T08:45:34;2.90;;;1.20;;
58017;SDS011;43810;50.860;19.226;2022-07-29T08:48:00;3.35;;;1.40;;
58017;SDS011;43810;50.860;19.226;2022-07-29T08:50:28;2.92;;;1.60;;
58017;SDS011;43810;50.860;19.226;2022-07-29T08:52:54;3.00;;;1.27;;
58017;SDS011;43810;50.860;19.226;2022-07-29T08:55:19;2.70;;;1.58;;
58017;SDS011;43810;50.860;19.226;2022-07-29T08:57:46;2.33;;;1.50;;
58017;SDS011;43810;50.860;19.226;2022-07-29T09:00:12;7.30;;;1.75;;
58017;SDS011;43810;50.860;19.226;2022-07-29T09:02:41;4.93;;;1.60;;
58017;SDS011;43810;50.860;19.226;2022-07-29T09:05:08;2.28;;;1.27;;
58017;SDS011;43810;50.860;19.226;2022-07-29T09:07:34;4.70;;;1.45;;
58017;SDS011;43810;50.860;19.226;2022-07-29T09:10:01;1.75;;;1.27;;
58017;SDS011;43810;50.860;19.226;2022-07-29T09:12:27;2.85;;;1.30;;
58017;SDS011;43810;50.860;19.226;2022-07-29T09:14:54;3.58;;;1.25;;
58017;SDS011;43810;50.860;19.226;2022-07-29T09:17:38;3.03;;;1.30;;
58017;SDS011;43810;50.860;19.226;2022-07-29T09:20:08;2.70;;;1.33;;
58017;SDS011;43810;50.860;19.226;2022-07-29T09:22:34;4.18;;;1.33;;
58017;SDS011;43810;50.860;19.226;2022-07-29T09:24:59;10.75;;;1.75;;
58017;SDS011;43810;50.860;19.226;2022-07-29T09:27:25;3.15;;;1.70;;
58017;SDS011;43810;50.860;19.226;2022-07-29T09:30:07;6.95;;;1.98;;
58017;SDS011;43810;50.860;19.226;2022-07-29T09:35:21;2.42;;;1.60;;
58017;SDS011;43810;50.860;19.226;2022-07-29T09:37:47;4.30;;;1.88;;
58017;SDS011;43810;50.860;19.226;2022-07-29T09:40:14;4.35;;;1.60;;
58017;SDS011;43810;50.860;19.226;2022-07-29T09:42:40;3.70;;;1.52;;
58017;SDS011;43810;50.860;19.226;2022-07-29T09:45:06;4.93;;;1.73;;
58017;SDS011;43810;50.860;19.226;2022-07-29T09:47:42;1.88;;;1.30;;
58017;SDS011;43810;50.860;19.226;2022-07-29T09:50:10;2.45;;;2.03;;
58017;SDS011;43810;50.860;19.226;2022-07-29T09:52:44;4.75;;;1.55;;
58017;SDS011;43810;50.860;19.226;2022-07-29T09:55:11;3.10;;;1.70;;
58017;SDS011;43810;50.860;19.226;2022-07-29T09:57:36;7.15;;;1.88;;
58017;SDS011;43810;50.860;19.226;2022-07-29T10:00:06;7.82;;;2.10;;
58017;SDS011;43810;50.860;19.226;2022-07-29T10:02:34;3.78;;;1.70;;
58017;SDS011;43810;50.860;19.226;2022-07-29T10:05:00;3.58;;;1.52;;
58017;SDS011;43810;50.860;19.226;2022-07-29T10:07:26;6.47;;;1.58;;
58017;SDS011;43810;50.860;19.226;2022-07-29T10:09:56;5.85;;;1.70;;
58017;SDS011;43810;50.860;19.226;2022-07-29T10:12:22;2.00;;;1.50;;
58017;SDS011;43810;50.860;19.226;2022-07-29T10:14:47;4.35;;;1.60;;
58017;SDS011;43810;50.860;19.226;2022-07-29T10:17:14;6.35;;;1.60;;
58017;SDS011;43810;50.860;19.226;2022-07-29T10:19:40;1.50;;;1.40;;
58017;SDS011;43810;50.860;19.226;2022-07-29T10:22:08;3.50;;;1.95;;
58017;SDS011;43810;50.860;19.226;2022-07-29T10:25:08;5.35;;;1.88;;
58017;SDS011;43810;50.860;19.226;2022-07-29T10:27:34;5.40;;;2.08;;
58017;SDS011;43810;50.860;19.226;2022-07-29T10:30:00;4.15;;;2.05;;
58017;SDS011;43810;50.860;19.226;2022-07-29T10:43:02;3.97;;;2.00;;
58017;SDS011;43810;50.860;19.226;2022-07-29T10:45:33;7.78;;;2.25;;
58017;SDS011;43810;50.860;19.226;2022-07-29T10:48:03;5.80;;;1.67;;
58017;SDS011;43810;50.860;19.226;2022-07-29T10:56:30;4.97;;;2.00;;
58017;SDS011;43810;50.860;19.226;2022-07-29T11:01:42;4.25;;;1.90;;
58017;SDS011;43810;50.860;19.226;2022-07-29T11:04:08;3.15;;;1.92;;
58017;SDS011;43810;50.860;19.226;2022-07-29T11:09:18;5.50;;;1.85;;
58017;SDS011;43810;50.860;19.226;2022-07-29T11:11:44;7.45;;;2.00;;
58017;SDS011;43810;50.860;19.226;2022-07-29T11:14:10;4.95;;;1.70;;
58017;SDS011;43810;50.860;19.226;2022-07-29T11:16:57;5.65;;;2.15;;
58017;SDS011;43810;50.860;19.226;2022-07-29T11:19:22;2.47;;;2.00;;
58017;SDS011;43810;50.860;19.226;2022-07-29T11:21:48;10.15;;;2.95;;
58017;SDS011;43810;50.860;19.226;2022-07-29T11:24:27;3.67;;;1.77;;
58017;SDS011;43810;50.860;19.226;2022-07-29T11:27:10;14.57;;;2.40;;
58017;SDS011;43810;50.860;19.226;2022-07-29T11:29:39;7.45;;;2.10;;
58017;SDS011;43810;50.860;19.226;2022-07-29T11:32:13;5.50;;;1.90;;
58017;SDS011;43810;50.860;19.226;2022-07-29T11:34:40;7.15;;;2.72;;
58017;SDS011;43810;50.860;19.226;2022-07-29T11:39:32;9.15;;;2.45;;
58017;SDS011;43810;50.860;19.226;2022-07-29T11:47:30;3.78;;;2.10;;
58017;SDS011;43810;50.860;19.226;2022-07-29T11:49:57;2.67;;;1.70;;
58017;SDS011;43810;50.860;19.226;2022-07-29T11:52:23;4.55;;;2.30;;
58017;SDS011;43810;50.860;19.226;2022-07-29T11:54:50;5.30;;;2.35;;
58017;SDS011;43810;50.860;19.226;2022-07-29T11:57:16;3.88;;;2.47;;
58017;SDS011;43810;50.860;19.226;2022-07-29T11:59:43;3.65;;;2.00;;
58017;SDS011;43810;50.860;19.226;2022-07-29T12:02:09;6.93;;;2.22;;
58017;SDS011;43810;50.860;19.226;2022-07-29T12:04:50;10.00;;;2.10;;
58017;SDS011;43810;50.860;19.226;2022-07-29T12:07:15;6.30;;;2.38;;
58017;SDS011;43810;50.860;19.226;2022-07-29T12:09:51;9.02;;;2.47;;
58017;SDS011;43810;50.860;19.226;2022-07-29T12:12:17;7.40;;;2.40;;
58017;SDS011;43810;50.860;19.226;2022-07-29T12:14:43;4.25;;;2.25;;
58017;SDS011;43810;50.860;19.226;2022-07-29T12:17:27;4.45;;;2.33;;
58017;SDS011;43810;50.860;19.226;2022-07-29T12:19:53;9.77;;;2.70;;
58017;SDS011;43810;50.860;19.226;2022-07-29T12:22:32;6.40;;;2.90;;
58017;SDS011;43810;50.860;19.226;2022-07-29T12:25:02;5.45;;;2.53;;
58017;SDS011;43810;50.860;19.226;2022-07-29T12:27:28;8.80;;;2.75;;
58017;SDS011;43810;50.860;19.226;2022-07-29T12:29:57;4.75;;;2.63;;
58017;SDS011;43810;50.860;19.226;2022-07-29T12:32:30;4.63;;;2.60;;
58017;SDS011;43810;50.860;19.226;2022-07-29T12:34:56;12.98;;;3.08;;
58017;SDS011;43810;50.860;19.226;2022-07-29T12:37:22;5.60;;;2.78;;
58017;SDS011;43810;50.860;19.226;2022-07-29T12:39:47;8.13;;;2.85;;
58017;SDS011;43810;50.860;19.226;2022-07-29T12:42:15;9.45;;;3.13;;
58017;SDS011;43810;50.860;19.226;2022-07-29T12:44:44;8.38;;;2.80;;
58017;SDS011;43810;50.860;19.226;2022-07-29T12:47:09;8.18;;;2.55;;
58017;SDS011;43810;50.860;19.226;2022-07-29T12:49:35;6.63;;;3.08;;
58017;SDS011;43810;50.860;19.226;2022-07-29T12:52:01;8.52;;;3.05;;
58017;SDS011;43810;50.860;19.226;2022-07-29T12:54:46;8.65;;;3.05;;
58017;SDS011;43810;50.860;19.226;2022-07-29T12:57:12;12.20;;;3.10;;
58017;SDS011;43810;50.860;19.226;2022-07-29T12:59:37;7.47;;;3.00;;
58017;SDS011;43810;50.860;19.226;2022-07-29T13:02:03;9.90;;;3.40;;
58017;SDS011;43810;50.860;19.226;2022-07-29T13:04:30;5.00;;;2.50;;
58017;SDS011;43810;50.860;19.226;2022-07-29T13:06:59;6.03;;;3.05;;
58017;SDS011;43810;50.860;19.226;2022-07-29T13:09:35;6.72;;;2.60;;
58017;SDS011;43810;50.860;19.226;2022-07-29T13:12:01;5.47;;;2.33;;
58017;SDS011;43810;50.860;19.226;2022-07-29T13:14:32;15.38;;;3.53;;
58017;SDS011;43810;50.860;19.226;2022-07-29T13:19:43;11.30;;;4.70;;
58017;SDS011;43810;50.860;19.226;2022-07-29T13:22:09;8.95;;;3.25;;
58017;SDS011;43810;50.860;19.226;2022-07-29T13:24:44;8.25;;;3.35;;
58017;SDS011;43810;50.860;19.226;2022-07-29T13:27:10;6.07;;;3.08;;
58017;SDS011;43810;50.860;19.226;2022-07-29T13:29:36;8.18;;;2.97;;
58017;SDS011;43810;50.860;19.226;2022-07-29T13:32:05;5.60;;;3.10;;
58017;SDS011;43810;50.860;19.226;2022-07-29T13:34:31;6.50;;;2.83;;
58017;SDS011;43810;50.860;19.226;2022-07-29T13:36:56;4.43;;;2.47;;
58017;SDS011;43810;50.860;19.226;2022-07-29T13:39:22;3.28;;;2.70;;
58017;SDS011;43810;50.860;19.226;2022-07-29T13:41:48;9.02;;;2.83;;
58017;SDS011;43810;50.860;19.226;2022-07-29T13:44:13;10.65;;;3.38;;
58017;SDS011;43810;50.860;19.226;2022-07-29T13:46:39;7.88;;;3.00;;
58017;SDS011;43810;50.860;19.226;2022-07-29T13:49:04;4.97;;;2.70;;
58017;SDS011;43810;50.860;19.226;2022-07-29T13:51:30;13.48;;;2.95;;
58017;SDS011;43810;50.860;19.226;2022-07-29T13:53:56;8.95;;;3.03;;
58017;SDS011;43810;50.860;19.226;2022-07-29T13:56:22;3.13;;;2.50;;
58017;SDS011;43810;50.860;19.226;2022-07-29T13:58:47;4.88;;;2.85;;
58017;SDS011;43810;50.860;19.226;2022-07-29T14:01:13;5.55;;;2.28;;
58017;SDS011;43810;50.860;19.226;2022-07-29T14:03:38;3.00;;;2.50;;
58017;SDS011;43810;50.860;19.226;2022-07-29T14:06:06;6.65;;;2.50;;
58017;SDS011;43810;50.860;19.226;2022-07-29T14:08:32;3.47;;;2.97;;
58017;SDS011;43810;50.860;19.226;2022-07-29T14:10:58;15.73;;;3.83;;
58017;SDS011;43810;50.860;19.226;2022-07-29T14:13:23;4.18;;;2.90;;
58017;SDS011;43810;50.860;19.226;2022-07-29T14:15:49;4.68;;;2.70;;
58017;SDS011;43810;50.860;19.226;2022-07-29T14:18:14;8.07;;;2.72;;
58017;SDS011;43810;50.860;19.226;2022-07-29T14:20:40;5.15;;;2.92;;
58017;SDS011;43810;50.860;19.226;2022-07-29T14:23:05;5.03;;;2.80;;
58017;SDS011;43810;50.860;19.226;2022-07-29T14:25:31;7.10;;;3.10;;
58017;SDS011;43810;50.860;19.226;2022-07-29T14:27:56;2.97;;;2.67;;
58017;SDS011;43810;50.860;19.226;2022-07-29T14:30:22;4.72;;;2.72;;
58017;SDS011;43810;50.860;19.226;2022-07-29T14:32:48;5.18;;;2.97;;
58017;SDS011;43810;50.860;19.226;2022-07-29T14:35:13;5.07;;;2.75;;
58017;SDS011;43810;50.860;19.226;2022-07-29T14:37:39;9.27;;;3.72;;
58017;SDS011;43810;50.860;19.226;2022-07-29T14:40:05;4.97;;;3.47;;
58017;SDS011;43810;50.860;19.226;2022-07-29T14:42:31;9.25;;;3.30;;
58017;SDS011;43810;50.860;19.226;2022-07-29T14:44:56;8.20;;;3.20;;
58017;SDS011;43810;50.860;19.226;2022-07-29T14:47:22;8.18;;;3.08;;
58017;SDS011;43810;50.860;19.226;2022-07-29T14:49:48;5.40;;;4.07;;
58017;SDS011;43810;50.860;19.226;2022-07-29T14:52:14;6.65;;;3.90;;
58017;SDS011;43810;50.860;19.226;2022-07-29T14:54:40;10.00;;;3.72;;
58017;SDS011;43810;50.860;19.226;2022-07-29T14:57:05;9.68;;;3.40;;
58017;SDS011;43810;50.860;19.226;2022-07-29T14:59:31;7.25;;;3.38;;
58017;SDS011;43810;50.860;19.226;2022-07-29T15:01:57;5.68;;;3.15;;
58017;SDS011;43810;50.860;19.226;2022-07-29T15:04:22;4.63;;;2.90;;
58017;SDS011;43810;50.860;19.226;2022-07-29T15:06:48;4.00;;;2.78;;
58017;SDS011;43810;50.860;19.226;2022-07-29T15:09:13;4.25;;;2.65;;
58017;SDS011;43810;50.860;19.226;2022-07-29T15:11:39;6.57;;;2.78;;
58017;SDS011;43810;50.860;19.226;2022-07-29T15:14:05;4.88;;;3.33;;
58017;SDS011;43810;50.860;19.226;2022-07-29T15:16:31;10.85;;;3.63;;